sensor_id;sensor_type;location;lat;lon;timestamp;P1;durP1;ratioP1;P2;durP2;ratioP2
50709;SDS011;37033;49.994;21.992;2023-08-06T00:00:31;25.00;;;14.40;;
50709;SDS011;37033;49.994;21.992;2023-08-06T00:03:22;28.60;;;15.60;;
50709;SDS011;37033;49.994;21.992;2023-08-06T00:05:53;31.10;;;15.50;;
50709;SDS011;37033;49.994;21.992;2023-08-06T00:08:23;30.20;;;15.20;;
50709;SDS011;37033;49.994;21.992;2023-08-06T00:10:54;25.70;;;14.70;;
50709;SDS011;37033;49.994;21.992;2023-08-06T00:13:24;27.60;;;16.20;;
50709;SDS011;37033;49.994;21.992;2023-08-06T00:15:56;28.50;;;15.60;;
50709;SDS011;37033;49.994;21.992;2023-08-06T00:18:36;26.80;;;15.20;;
50709;SDS011;37033;49.994;21.992;2023-08-06T00:21:07;24.90;;;14.90;;
50709;SDS011;37033;49.994;21.992;2023-08-06T00:23:39;20.80;;;14.70;;
50709;SDS011;37033;49.994;21.992;2023-08-06T00:26:10;21.90;;;13.50;;
50709;SDS011;37033;49.994;21.992;2023-08-06T00:28:41;24.10;;;13.80;;
50709;SDS011;37033;49.994;21.992;2023-08-06T00:31:12;22.20;;;14.00;;
50709;SDS011;37033;49.994;21.992;2023-08-06T00:33:42;23.50;;;13.20;;
50709;SDS011;37033;49.994;21.992;2023-08-06T00:36:13;20.80;;;13.20;;
50709;SDS011;37033;49.994;21.992;2023-08-06T00:38:43;19.80;;;13.20;;
50709;SDS011;37033;49.994;21.992;2023-08-06T00:41:14;19.20;;;12.40;;
50709;SDS011;37033;49.994;21.992;2023-08-06T00:43:45;19.20;;;13.30;;
50709;SDS011;37033;49.994;21.992;2023-08-06T00:46:16;20.50;;;12.50;;
50709;SDS011;37033;49.994;21.992;2023-08-06T00:48:47;20.70;;;13.80;;
50709;SDS011;37033;49.994;21.992;2023-08-06T00:51:19;20.90;;;13.50;;
50709;SDS011;37033;49.994;21.992;2023-08-06T00:53:51;21.30;;;13.70;;
50709;SDS011;37033;49.994;21.992;2023-08-06T00:56:23;19.50;;;13.00;;
50709;SDS011;37033;49.994;21.992;2023-08-06T00:58:55;21.30;;;13.90;;
50709;SDS011;37033;49.994;21.992;2023-08-06T01:01:26;20.60;;;13.70;;
50709;SDS011;37033;49.994;21.992;2023-08-06T01:03:57;23.70;;;13.90;;
50709;SDS011;37033;49.994;21.992;2023-08-06T01:06:30;22.10;;;14.20;;
50709;SDS011;37033;49.994;21.992;2023-08-06T01:09:11;24.80;;;14.80;;
50709;SDS011;37033;49.994;21.992;2023-08-06T01:11:59;24.20;;;15.10;;
50709;SDS011;37033;49.994;21.992;2023-08-06T01:14:37;29.90;;;14.70;;
50709;SDS011;37033;49.994;21.992;2023-08-06T01:17:14;25.80;;;14.80;;
50709;SDS011;37033;49.994;21.992;2023-08-06T01:19:46;24.50;;;14.90;;
50709;SDS011;37033;49.994;21.992;2023-08-06T01:22:16;21.90;;;13.90;;
50709;SDS011;37033;49.994;21.992;2023-08-06T01:24:48;24.90;;;15.30;;
50709;SDS011;37033;49.994;21.992;2023-08-06T01:27:22;22.50;;;14.30;;
50709;SDS011;37033;49.994;21.992;2023-08-06T01:30:02;24.30;;;15.20;;
50709;SDS011;37033;49.994;21.992;2023-08-06T01:32:38;22.90;;;15.10;;
50709;SDS011;37033;49.994;21.992;2023-08-06T01:35:14;22.90;;;15.40;;
50709;SDS011;37033;49.994;21.992;2023-08-06T01:40:17;23.30;;;15.40;;
50709;SDS011;37033;49.994;21.992;2023-08-06T01:42:48;24.20;;;14.50;;
50709;SDS011;37033;49.994;21.992;2023-08-06T01:45:18;24.60;;;15.90;;
50709;SDS011;37033;49.994;21.992;2023-08-06T01:47:49;29.40;;;15.60;;
50709;SDS011;37033;49.994;21.992;2023-08-06T01:50:20;25.00;;;15.00;;
50709;SDS011;37033;49.994;21.992;2023-08-06T01:52:51;25.40;;;15.40;;
50709;SDS011;37033;49.994;21.992;2023-08-06T01:55:21;26.00;;;15.50;;
50709;SDS011;37033;49.994;21.992;2023-08-06T01:57:52;24.60;;;15.00;;
50709;SDS011;37033;49.994;21.992;2023-08-06T02:00:23;23.60;;;15.50;;
50709;SDS011;37033;49.994;21.992;2023-08-06T02:02:55;24.90;;;14.60;;
50709;SDS011;37033;49.994;21.992;2023-08-06T02:05:26;27.10;;;15.00;;
50709;SDS011;37033;49.994;21.992;2023-08-06T02:07:56;22.40;;;14.20;;
50709;SDS011;37033;49.994;21.992;2023-08-06T02:10:27;26.20;;;15.20;;
50709;SDS011;37033;49.994;21.992;2023-08-06T02:12:58;25.00;;;16.40;;
50709;SDS011;37033;49.994;21.992;2023-08-06T02:15:29;27.00;;;15.50;;
50709;SDS011;37033;49.994;21.992;2023-08-06T02:17:59;24.50;;;15.70;;
50709;SDS011;37033;49.994;21.992;2023-08-06T02:20:30;26.20;;;15.20;;
50709;SDS011;37033;49.994;21.992;2023-08-06T02:23:01;26.60;;;17.50;;
50709;SDS011;37033;49.994;21.992;2023-08-06T02:25:31;27.40;;;15.40;;
50709;SDS011;37033;49.994;21.992;2023-08-06T02:28:02;26.90;;;16.30;;
50709;SDS011;37033;49.994;21.992;2023-08-06T02:30:33;24.60;;;15.20;;
50709;SDS011;37033;49.994;21.992;2023-08-06T02:33:04;30.10;;;15.50;;
50709;SDS011;37033;49.994;21.992;2023-08-06T02:35:34;31.90;;;16.90;;
50709;SDS011;37033;49.994;21.992;2023-08-06T02:38:05;35.00;;;17.80;;
50709;SDS011;37033;49.994;21.992;2023-08-06T02:40:36;33.50;;;17.80;;
50709;SDS011;37033;49.994;21.992;2023-08-06T02:43:11;30.90;;;17.60;;
50709;SDS011;37033;49.994;21.992;2023-08-06T02:45:42;29.00;;;16.80;;
50709;SDS011;37033;49.994;21.992;2023-08-06T02:48:12;32.00;;;17.30;;
50709;SDS011;37033;49.994;21.992;2023-08-06T02:50:43;33.50;;;17.00;;
50709;SDS011;37033;49.994;21.992;2023-08-06T02:53:14;30.60;;;17.10;;
50709;SDS011;37033;49.994;21.992;2023-08-06T02:55:46;30.00;;;17.00;;
50709;SDS011;37033;49.994;21.992;2023-08-06T02:58:18;24.00;;;15.00;;
50709;SDS011;37033;49.994;21.992;2023-08-06T03:00:59;24.50;;;14.60;;
50709;SDS011;37033;49.994;21.992;2023-08-06T03:03:33;17.90;;;13.30;;
50709;SDS011;37033;49.994;21.992;2023-08-06T03:06:03;20.30;;;13.30;;
50709;SDS011;37033;49.994;21.992;2023-08-06T03:08:34;19.90;;;13.00;;
50709;SDS011;37033;49.994;21.992;2023-08-06T03:11:07;23.20;;;14.30;;
50709;SDS011;37033;49.994;21.992;2023-08-06T03:13:37;26.70;;;14.50;;
50709;SDS011;37033;49.994;21.992;2023-08-06T03:16:08;21.00;;;13.90;;
50709;SDS011;37033;49.994;21.992;2023-08-06T03:18:39;24.40;;;14.00;;
50709;SDS011;37033;49.994;21.992;2023-08-06T03:21:09;20.40;;;13.00;;
50709;SDS011;37033;49.994;21.992;2023-08-06T03:23:40;22.10;;;13.60;;
50709;SDS011;37033;49.994;21.992;2023-08-06T03:26:11;21.30;;;13.30;;
50709;SDS011;37033;49.994;21.992;2023-08-06T03:28:41;20.60;;;12.50;;
50709;SDS011;37033;49.994;21.992;2023-08-06T03:31:12;18.50;;;12.20;;
50709;SDS011;37033;49.994;21.992;2023-08-06T03:33:43;17.50;;;13.60;;
50709;SDS011;37033;49.994;21.992;2023-08-06T03:36:13;18.70;;;13.10;;
50709;SDS011;37033;49.994;21.992;2023-08-06T03:38:44;23.50;;;13.60;;
50709;SDS011;37033;49.994;21.992;2023-08-06T03:41:15;21.20;;;13.10;;
50709;SDS011;37033;49.994;21.992;2023-08-06T03:43:45;18.90;;;13.50;;
50709;SDS011;37033;49.994;21.992;2023-08-06T03:46:16;18.90;;;12.00;;
50709;SDS011;37033;49.994;21.992;2023-08-06T03:48:47;20.60;;;12.80;;
50709;SDS011;37033;49.994;21.992;2023-08-06T03:51:17;16.80;;;12.30;;
50709;SDS011;37033;49.994;21.992;2023-08-06T03:53:48;19.70;;;13.50;;
50709;SDS011;37033;49.994;21.992;2023-08-06T03:56:19;16.00;;;11.80;;
50709;SDS011;37033;49.994;21.992;2023-08-06T03:58:49;16.80;;;12.10;;
50709;SDS011;37033;49.994;21.992;2023-08-06T04:01:20;14.20;;;11.90;;
50709;SDS011;37033;49.994;21.992;2023-08-06T04:03:51;18.40;;;12.30;;
50709;SDS011;37033;49.994;21.992;2023-08-06T04:06:21;17.40;;;13.10;;
50709;SDS011;37033;49.994;21.992;2023-08-06T04:08:52;15.10;;;12.20;;
50709;SDS011;37033;49.994;21.992;2023-08-06T04:11:22;16.00;;;12.40;;
50709;SDS011;37033;49.994;21.992;2023-08-06T04:13:53;16.70;;;12.50;;
50709;SDS011;37033;49.994;21.992;2023-08-06T04:16:24;15.80;;;10.50;;
50709;SDS011;37033;49.994;21.992;2023-08-06T04:18:55;15.90;;;12.30;;
50709;SDS011;37033;49.994;21.992;2023-08-06T04:21:26;15.20;;;12.10;;
50709;SDS011;37033;49.994;21.992;2023-08-06T04:23:57;15.30;;;11.90;;
50709;SDS011;37033;49.994;21.992;2023-08-06T04:26:28;16.00;;;12.10;;
50709;SDS011;37033;49.994;21.992;2023-08-06T04:28:59;16.30;;;11.80;;
50709;SDS011;37033;49.994;21.992;2023-08-06T04:31:30;14.50;;;11.70;;
50709;SDS011;37033;49.994;21.992;2023-08-06T04:34:01;13.80;;;12.40;;
50709;SDS011;37033;49.994;21.992;2023-08-06T04:36:31;14.10;;;12.20;;
50709;SDS011;37033;49.994;21.992;2023-08-06T04:39:02;17.10;;;13.00;;
50709;SDS011;37033;49.994;21.992;2023-08-06T04:41:33;16.30;;;14.30;;
50709;SDS011;37033;49.994;21.992;2023-08-06T04:44:04;17.70;;;13.40;;
50709;SDS011;37033;49.994;21.992;2023-08-06T04:46:34;17.00;;;14.00;;
50709;SDS011;37033;49.994;21.992;2023-08-06T04:49:05;15.70;;;12.70;;
50709;SDS011;37033;49.994;21.992;2023-08-06T04:51:36;15.40;;;13.80;;
50709;SDS011;37033;49.994;21.992;2023-08-06T04:54:06;16.10;;;13.80;;
50709;SDS011;37033;49.994;21.992;2023-08-06T04:56:37;16.20;;;13.20;;
50709;SDS011;37033;49.994;21.992;2023-08-06T04:59:08;19.30;;;14.20;;
50709;SDS011;37033;49.994;21.992;2023-08-06T05:01:38;17.50;;;13.60;;
50709;SDS011;37033;49.994;21.992;2023-08-06T05:04:09;15.90;;;13.70;;
50709;SDS011;37033;49.994;21.992;2023-08-06T05:06:40;16.10;;;13.60;;
50709;SDS011;37033;49.994;21.992;2023-08-06T05:09:10;20.30;;;13.80;;
50709;SDS011;37033;49.994;21.992;2023-08-06T05:11:41;15.60;;;12.40;;
50709;SDS011;37033;49.994;21.992;2023-08-06T05:14:12;15.40;;;13.20;;
50709;SDS011;37033;49.994;21.992;2023-08-06T05:16:42;14.50;;;12.70;;
50709;SDS011;37033;49.994;21.992;2023-08-06T05:19:13;17.30;;;14.20;;
50709;SDS011;37033;49.994;21.992;2023-08-06T05:21:44;14.40;;;12.90;;
50709;SDS011;37033;49.994;21.992;2023-08-06T05:24:15;16.10;;;13.20;;
50709;SDS011;37033;49.994;21.992;2023-08-06T05:26:45;14.20;;;12.60;;
50709;SDS011;37033;49.994;21.992;2023-08-06T05:29:17;14.50;;;12.40;;
50709;SDS011;37033;49.994;21.992;2023-08-06T05:31:48;14.60;;;12.40;;
50709;SDS011;37033;49.994;21.992;2023-08-06T05:34:18;12.90;;;11.50;;
50709;SDS011;37033;49.994;21.992;2023-08-06T05:36:49;12.60;;;11.40;;
50709;SDS011;37033;49.994;21.992;2023-08-06T05:39:20;13.60;;;12.00;;
50709;SDS011;37033;49.994;21.992;2023-08-06T05:41:51;13.40;;;10.90;;
50709;SDS011;37033;49.994;21.992;2023-08-06T05:44:22;11.80;;;10.80;;
50709;SDS011;37033;49.994;21.992;2023-08-06T05:46:53;13.20;;;9.80;;
50709;SDS011;37033;49.994;21.992;2023-08-06T05:49:24;18.40;;;10.20;;
50709;SDS011;37033;49.994;21.992;2023-08-06T05:51:54;11.80;;;10.00;;
50709;SDS011;37033;49.994;21.992;2023-08-06T05:54:25;10.30;;;9.30;;
50709;SDS011;37033;49.994;21.992;2023-08-06T05:56:56;10.30;;;9.40;;
50709;SDS011;37033;49.994;21.992;2023-08-06T05:59:27;23.90;;;16.10;;
50709;SDS011;37033;49.994;21.992;2023-08-06T06:01:57;11.60;;;10.40;;
50709;SDS011;37033;49.994;21.992;2023-08-06T06:04:28;10.60;;;9.60;;
50709;SDS011;37033;49.994;21.992;2023-08-06T06:06:59;10.90;;;9.60;;
50709;SDS011;37033;49.994;21.992;2023-08-06T06:09:30;11.70;;;10.50;;
50709;SDS011;37033;49.994;21.992;2023-08-06T06:12:00;11.40;;;9.80;;
50709;SDS011;37033;49.994;21.992;2023-08-06T06:14:31;9.60;;;8.80;;
50709;SDS011;37033;49.994;21.992;2023-08-06T06:17:02;9.40;;;8.00;;
50709;SDS011;37033;49.994;21.992;2023-08-06T06:19:33;8.80;;;8.10;;
50709;SDS011;37033;49.994;21.992;2023-08-06T06:22:04;28.50;;;21.80;;
50709;SDS011;37033;49.994;21.992;2023-08-06T06:24:35;10.70;;;9.60;;
50709;SDS011;37033;49.994;21.992;2023-08-06T06:27:06;10.50;;;8.00;;
50709;SDS011;37033;49.994;21.992;2023-08-06T06:29:36;8.30;;;7.60;;
50709;SDS011;37033;49.994;21.992;2023-08-06T06:32:07;7.20;;;6.50;;
50709;SDS011;37033;49.994;21.992;2023-08-06T06:34:38;7.30;;;6.70;;
50709;SDS011;37033;49.994;21.992;2023-08-06T06:37:09;7.00;;;6.00;;
50709;SDS011;37033;49.994;21.992;2023-08-06T06:39:40;7.20;;;6.60;;
50709;SDS011;37033;49.994;21.992;2023-08-06T06:42:11;8.90;;;6.30;;
50709;SDS011;37033;49.994;21.992;2023-08-06T06:44:43;6.90;;;6.20;;
50709;SDS011;37033;49.994;21.992;2023-08-06T06:47:13;6.40;;;5.90;;
50709;SDS011;37033;49.994;21.992;2023-08-06T06:49:44;8.40;;;6.60;;
50709;SDS011;37033;49.994;21.992;2023-08-06T06:52:15;6.70;;;6.20;;
50709;SDS011;37033;49.994;21.992;2023-08-06T06:54:46;6.10;;;5.60;;
50709;SDS011;37033;49.994;21.992;2023-08-06T06:57:17;6.70;;;5.70;;
50709;SDS011;37033;49.994;21.992;2023-08-06T06:59:47;6.30;;;5.70;;
50709;SDS011;37033;49.994;21.992;2023-08-06T07:02:18;7.40;;;5.60;;
50709;SDS011;37033;49.994;21.992;2023-08-06T07:04:49;5.90;;;5.40;;
50709;SDS011;37033;49.994;21.992;2023-08-06T07:07:20;6.60;;;6.00;;
50709;SDS011;37033;49.994;21.992;2023-08-06T07:09:51;6.50;;;5.80;;
50709;SDS011;37033;49.994;21.992;2023-08-06T07:12:21;6.20;;;5.70;;
50709;SDS011;37033;49.994;21.992;2023-08-06T07:14:52;6.90;;;5.30;;
50709;SDS011;37033;49.994;21.992;2023-08-06T07:17:23;6.20;;;5.40;;
50709;SDS011;37033;49.994;21.992;2023-08-06T07:19:53;5.70;;;5.30;;
50709;SDS011;37033;49.994;21.992;2023-08-06T07:22:24;5.50;;;5.10;;
50709;SDS011;37033;49.994;21.992;2023-08-06T07:24:54;5.90;;;5.40;;
50709;SDS011;37033;49.994;21.992;2023-08-06T07:27:25;6.70;;;5.20;;
50709;SDS011;37033;49.994;21.992;2023-08-06T07:29:56;6.50;;;5.70;;
50709;SDS011;37033;49.994;21.992;2023-08-06T07:32:27;5.90;;;5.10;;
50709;SDS011;37033;49.994;21.992;2023-08-06T07:34:58;7.20;;;6.20;;
50709;SDS011;37033;49.994;21.992;2023-08-06T07:37:30;6.00;;;5.10;;
50709;SDS011;37033;49.994;21.992;2023-08-06T07:40:01;9.50;;;5.40;;
50709;SDS011;37033;49.994;21.992;2023-08-06T07:42:32;5.20;;;4.50;;
50709;SDS011;37033;49.994;21.992;2023-08-06T07:45:03;10.30;;;4.90;;
50709;SDS011;37033;49.994;21.992;2023-08-06T07:47:36;18.20;;;5.20;;
50709;SDS011;37033;49.994;21.992;2023-08-06T07:50:08;5.80;;;4.20;;
50709;SDS011;37033;49.994;21.992;2023-08-06T07:52:39;8.50;;;5.30;;
50709;SDS011;37033;49.994;21.992;2023-08-06T07:55:10;5.30;;;4.80;;
50709;SDS011;37033;49.994;21.992;2023-08-06T07:57:40;5.00;;;4.60;;
50709;SDS011;37033;49.994;21.992;2023-08-06T08:00:11;5.50;;;4.40;;
50709;SDS011;37033;49.994;21.992;2023-08-06T08:02:42;7.30;;;4.00;;
50709;SDS011;37033;49.994;21.992;2023-08-06T08:05:14;4.50;;;4.10;;
50709;SDS011;37033;49.994;21.992;2023-08-06T08:07:45;4.00;;;3.70;;
50709;SDS011;37033;49.994;21.992;2023-08-06T08:10:15;4.10;;;3.80;;
50709;SDS011;37033;49.994;21.992;2023-08-06T08:12:46;4.50;;;4.10;;
50709;SDS011;37033;49.994;21.992;2023-08-06T08:15:17;4.80;;;4.40;;
50709;SDS011;37033;49.994;21.992;2023-08-06T08:17:48;4.80;;;4.40;;
50709;SDS011;37033;49.994;21.992;2023-08-06T08:20:20;5.00;;;4.60;;
50709;SDS011;37033;49.994;21.992;2023-08-06T08:22:51;4.10;;;3.80;;
50709;SDS011;37033;49.994;21.992;2023-08-06T08:25:22;5.50;;;4.10;;
50709;SDS011;37033;49.994;21.992;2023-08-06T08:27:52;4.70;;;4.30;;
50709;SDS011;37033;49.994;21.992;2023-08-06T08:30:23;5.10;;;3.80;;
50709;SDS011;37033;49.994;21.992;2023-08-06T08:32:54;5.00;;;4.50;;
50709;SDS011;37033;49.994;21.992;2023-08-06T08:35:25;4.30;;;4.00;;
50709;SDS011;37033;49.994;21.992;2023-08-06T08:37:56;4.60;;;4.20;;
50709;SDS011;37033;49.994;21.992;2023-08-06T08:40:28;4.50;;;4.10;;
50709;SDS011;37033;49.994;21.992;2023-08-06T08:43:01;4.20;;;3.80;;
50709;SDS011;37033;49.994;21.992;2023-08-06T08:45:33;4.10;;;3.80;;
50709;SDS011;37033;49.994;21.992;2023-08-06T08:48:08;4.40;;;4.00;;
50709;SDS011;37033;49.994;21.992;2023-08-06T08:50:42;5.50;;;4.50;;
50709;SDS011;37033;49.994;21.992;2023-08-06T08:53:15;5.20;;;4.30;;
50709;SDS011;37033;49.994;21.992;2023-08-06T08:55:48;5.90;;;4.20;;
50709;SDS011;37033;49.994;21.992;2023-08-06T08:58:20;4.90;;;4.50;;
50709;SDS011;37033;49.994;21.992;2023-08-06T09:00:50;4.70;;;4.30;;
50709;SDS011;37033;49.994;21.992;2023-08-06T09:03:22;5.40;;;4.40;;
50709;SDS011;37033;49.994;21.992;2023-08-06T09:05:53;5.00;;;4.00;;
50709;SDS011;37033;49.994;21.992;2023-08-06T09:08:34;4.90;;;4.10;;
50709;SDS011;37033;49.994;21.992;2023-08-06T09:11:10;5.40;;;4.90;;
50709;SDS011;37033;49.994;21.992;2023-08-06T09:13:41;4.50;;;4.00;;
50709;SDS011;37033;49.994;21.992;2023-08-06T09:16:12;4.50;;;4.00;;
50709;SDS011;37033;49.994;21.992;2023-08-06T09:18:43;5.90;;;3.70;;
50709;SDS011;37033;49.994;21.992;2023-08-06T09:21:14;5.00;;;3.70;;
50709;SDS011;37033;49.994;21.992;2023-08-06T09:23:45;4.00;;;3.70;;
50709;SDS011;37033;49.994;21.992;2023-08-06T09:26:16;3.90;;;3.60;;
50709;SDS011;37033;49.994;21.992;2023-08-06T09:28:47;3.40;;;3.10;;
50709;SDS011;37033;49.994;21.992;2023-08-06T09:31:17;3.40;;;3.10;;
50709;SDS011;37033;49.994;21.992;2023-08-06T09:33:48;5.60;;;5.10;;
50709;SDS011;37033;49.994;21.992;2023-08-06T09:36:19;4.00;;;2.90;;
50709;SDS011;37033;49.994;21.992;2023-08-06T09:38:50;3.80;;;2.60;;
50709;SDS011;37033;49.994;21.992;2023-08-06T09:41:27;3.00;;;2.70;;
50709;SDS011;37033;49.994;21.992;2023-08-06T09:43:58;2.50;;;2.30;;
50709;SDS011;37033;49.994;21.992;2023-08-06T09:46:29;2.60;;;2.40;;
50709;SDS011;37033;49.994;21.992;2023-08-06T09:49:02;2.70;;;2.30;;
50709;SDS011;37033;49.994;21.992;2023-08-06T09:51:35;2.50;;;2.30;;
50709;SDS011;37033;49.994;21.992;2023-08-06T09:54:08;3.00;;;2.40;;
50709;SDS011;37033;49.994;21.992;2023-08-06T09:56:41;2.50;;;2.30;;
50709;SDS011;37033;49.994;21.992;2023-08-06T09:59:13;2.60;;;2.20;;
50709;SDS011;37033;49.994;21.992;2023-08-06T10:01:44;2.40;;;2.20;;
50709;SDS011;37033;49.994;21.992;2023-08-06T10:04:15;2.20;;;2.00;;
50709;SDS011;37033;49.994;21.992;2023-08-06T10:06:47;3.10;;;1.90;;
50709;SDS011;37033;49.994;21.992;2023-08-06T10:09:18;1.70;;;1.60;;
50709;SDS011;37033;49.994;21.992;2023-08-06T10:11:50;1.70;;;1.60;;
50709;SDS011;37033;49.994;21.992;2023-08-06T10:14:22;1.20;;;1.10;;
50709;SDS011;37033;49.994;21.992;2023-08-06T10:16:57;1.50;;;1.40;;
50709;SDS011;37033;49.994;21.992;2023-08-06T10:19:29;3.60;;;1.30;;
50709;SDS011;37033;49.994;21.992;2023-08-06T10:22:14;2.50;;;1.50;;
50709;SDS011;37033;49.994;21.992;2023-08-06T10:27:19;1.30;;;1.20;;
50709;SDS011;37033;49.994;21.992;2023-08-06T10:29:51;1.30;;;1.20;;
50709;SDS011;37033;49.994;21.992;2023-08-06T10:32:22;2.60;;;1.40;;
50709;SDS011;37033;49.994;21.992;2023-08-06T10:35:28;1.60;;;1.50;;
50709;SDS011;37033;49.994;21.992;2023-08-06T10:38:01;1.90;;;1.80;;
50709;SDS011;37033;49.994;21.992;2023-08-06T10:40:34;2.20;;;1.90;;
50709;SDS011;37033;49.994;21.992;2023-08-06T10:43:06;4.20;;;3.80;;
50709;SDS011;37033;49.994;21.992;2023-08-06T10:45:38;3.60;;;3.30;;
50709;SDS011;37033;49.994;21.992;2023-08-06T10:48:29;3.20;;;1.90;;
50709;SDS011;37033;49.994;21.992;2023-08-06T10:51:08;2.10;;;1.60;;
50709;SDS011;37033;49.994;21.992;2023-08-06T10:53:41;1.70;;;1.60;;
50709;SDS011;37033;49.994;21.992;2023-08-06T10:56:15;2.60;;;2.40;;
50709;SDS011;37033;49.994;21.992;2023-08-06T10:58:48;4.90;;;1.60;;
50709;SDS011;37033;49.994;21.992;2023-08-06T11:01:19;1.40;;;1.30;;
50709;SDS011;37033;49.994;21.992;2023-08-06T11:03:52;1.30;;;1.20;;
50709;SDS011;37033;49.994;21.992;2023-08-06T11:06:23;1.60;;;1.00;;
50709;SDS011;37033;49.994;21.992;2023-08-06T11:08:55;1.30;;;1.20;;
50709;SDS011;37033;49.994;21.992;2023-08-06T11:11:25;3.60;;;1.00;;
50709;SDS011;37033;49.994;21.992;2023-08-06T11:13:57;1.70;;;0.70;;
50709;SDS011;37033;49.994;21.992;2023-08-06T11:16:29;2.70;;;0.70;;
50709;SDS011;37033;49.994;21.992;2023-08-06T11:19:00;2.10;;;0.60;;
50709;SDS011;37033;49.994;21.992;2023-08-06T11:21:30;1.50;;;0.40;;
50709;SDS011;37033;49.994;21.992;2023-08-06T11:24:01;0.40;;;0.40;;
50709;SDS011;37033;49.994;21.992;2023-08-06T11:26:32;0.70;;;0.60;;
50709;SDS011;37033;49.994;21.992;2023-08-06T11:29:06;1.20;;;0.90;;
50709;SDS011;37033;49.994;21.992;2023-08-06T11:31:37;0.70;;;0.70;;
50709;SDS011;37033;49.994;21.992;2023-08-06T11:34:07;0.70;;;0.70;;
50709;SDS011;37033;49.994;21.992;2023-08-06T11:36:40;1.80;;;1.50;;
50709;SDS011;37033;49.994;21.992;2023-08-06T11:39:11;0.90;;;0.80;;
50709;SDS011;37033;49.994;21.992;2023-08-06T11:41:42;0.70;;;0.70;;
50709;SDS011;37033;49.994;21.992;2023-08-06T11:44:14;0.70;;;0.60;;
50709;SDS011;37033;49.994;21.992;2023-08-06T11:46:51;0.60;;;0.60;;
50709;SDS011;37033;49.994;21.992;2023-08-06T11:52:20;2.10;;;1.90;;
50709;SDS011;37033;49.994;21.992;2023-08-06T11:55:01;1.90;;;0.60;;
50709;SDS011;37033;49.994;21.992;2023-08-06T11:57:34;0.60;;;0.50;;
50709;SDS011;37033;49.994;21.992;2023-08-06T12:00:08;0.50;;;0.50;;
50709;SDS011;37033;49.994;21.992;2023-08-06T12:02:41;0.40;;;0.40;;
50709;SDS011;37033;49.994;21.992;2023-08-06T12:05:14;0.50;;;0.50;;
50709;SDS011;37033;49.994;21.992;2023-08-06T12:07:48;0.80;;;0.80;;
50709;SDS011;37033;49.994;21.992;2023-08-06T12:10:21;0.50;;;0.50;;
50709;SDS011;37033;49.994;21.992;2023-08-06T12:12:53;0.60;;;0.60;;
50709;SDS011;37033;49.994;21.992;2023-08-06T12:15:24;0.70;;;0.50;;
50709;SDS011;37033;49.994;21.992;2023-08-06T12:17:55;0.70;;;0.60;;
50709;SDS011;37033;49.994;21.992;2023-08-06T12:20:26;1.20;;;0.60;;
50709;SDS011;37033;49.994;21.992;2023-08-06T12:22:57;0.80;;;0.60;;
50709;SDS011;37033;49.994;21.992;2023-08-06T12:25:28;0.70;;;0.60;;
50709;SDS011;37033;49.994;21.992;2023-08-06T12:27:59;0.60;;;0.40;;
50709;SDS011;37033;49.994;21.992;2023-08-06T12:30:29;0.70;;;0.50;;
50709;SDS011;37033;49.994;21.992;2023-08-06T12:33:00;0.70;;;0.40;;
50709;SDS011;37033;49.994;21.992;2023-08-06T12:35:31;0.50;;;0.50;;
50709;SDS011;37033;49.994;21.992;2023-08-06T12:38:02;0.70;;;0.50;;
50709;SDS011;37033;49.994;21.992;2023-08-06T12:40:32;0.70;;;0.60;;
50709;SDS011;37033;49.994;21.992;2023-08-06T12:43:03;0.60;;;0.50;;
50709;SDS011;37033;49.994;21.992;2023-08-06T12:45:34;0.60;;;0.40;;
50709;SDS011;37033;49.994;21.992;2023-08-06T12:48:05;0.50;;;0.50;;
50709;SDS011;37033;49.994;21.992;2023-08-06T12:50:36;0.80;;;0.60;;
50709;SDS011;37033;49.994;21.992;2023-08-06T12:53:07;0.90;;;0.60;;
50709;SDS011;37033;49.994;21.992;2023-08-06T12:55:38;3.80;;;0.60;;
50709;SDS011;37033;49.994;21.992;2023-08-06T12:58:09;1.60;;;1.50;;
50709;SDS011;37033;49.994;21.992;2023-08-06T13:00:40;0.80;;;0.70;;
50709;SDS011;37033;49.994;21.992;2023-08-06T13:03:10;0.50;;;0.40;;
50709;SDS011;37033;49.994;21.992;2023-08-06T13:05:41;0.60;;;0.60;;
50709;SDS011;37033;49.994;21.992;2023-08-06T13:08:12;1.40;;;0.60;;
50709;SDS011;37033;49.994;21.992;2023-08-06T13:10:43;1.50;;;0.80;;
50709;SDS011;37033;49.994;21.992;2023-08-06T13:13:14;2.60;;;0.60;;
50709;SDS011;37033;49.994;21.992;2023-08-06T13:15:45;0.40;;;0.40;;
50709;SDS011;37033;49.994;21.992;2023-08-06T13:18:16;0.90;;;0.80;;
50709;SDS011;37033;49.994;21.992;2023-08-06T13:20:46;3.60;;;2.50;;
50709;SDS011;37033;49.994;21.992;2023-08-06T13:23:20;0.90;;;0.90;;
50709;SDS011;37033;49.994;21.992;2023-08-06T13:25:51;0.50;;;0.50;;
50709;SDS011;37033;49.994;21.992;2023-08-06T13:28:21;2.50;;;0.70;;
50709;SDS011;37033;49.994;21.992;2023-08-06T13:30:52;0.60;;;0.50;;
50709;SDS011;37033;49.994;21.992;2023-08-06T13:33:24;0.70;;;0.50;;
50709;SDS011;37033;49.994;21.992;2023-08-06T13:35:55;0.80;;;0.70;;
50709;SDS011;37033;49.994;21.992;2023-08-06T13:38:26;0.90;;;0.90;;
50709;SDS011;37033;49.994;21.992;2023-08-06T13:40:56;1.30;;;0.70;;
50709;SDS011;37033;49.994;21.992;2023-08-06T13:43:27;1.80;;;0.70;;
50709;SDS011;37033;49.994;21.992;2023-08-06T13:45:58;1.60;;;1.10;;
50709;SDS011;37033;49.994;21.992;2023-08-06T13:48:28;1.00;;;0.70;;
50709;SDS011;37033;49.994;21.992;2023-08-06T13:50:59;0.50;;;0.40;;
50709;SDS011;37033;49.994;21.992;2023-08-06T13:53:30;0.50;;;0.50;;
50709;SDS011;37033;49.994;21.992;2023-08-06T13:56:00;0.50;;;0.50;;
50709;SDS011;37033;49.994;21.992;2023-08-06T13:58:32;0.50;;;0.40;;
50709;SDS011;37033;49.994;21.992;2023-08-06T14:01:03;1.40;;;0.50;;
50709;SDS011;37033;49.994;21.992;2023-08-06T14:03:34;0.90;;;0.50;;
50709;SDS011;37033;49.994;21.992;2023-08-06T14:06:05;0.40;;;0.40;;
50709;SDS011;37033;49.994;21.992;2023-08-06T14:08:35;0.80;;;0.60;;
50709;SDS011;37033;49.994;21.992;2023-08-06T14:11:06;0.40;;;0.40;;
50709;SDS011;37033;49.994;21.992;2023-08-06T14:13:38;0.70;;;0.60;;
50709;SDS011;37033;49.994;21.992;2023-08-06T14:16:09;0.50;;;0.40;;
50709;SDS011;37033;49.994;21.992;2023-08-06T14:18:39;0.50;;;0.50;;
50709;SDS011;37033;49.994;21.992;2023-08-06T14:21:10;0.70;;;0.40;;
50709;SDS011;37033;49.994;21.992;2023-08-06T14:23:40;0.40;;;0.40;;
50709;SDS011;37033;49.994;21.992;2023-08-06T14:26:11;0.90;;;0.40;;
50709;SDS011;37033;49.994;21.992;2023-08-06T14:28:43;0.80;;;0.60;;
50709;SDS011;37033;49.994;21.992;2023-08-06T14:31:14;1.90;;;0.30;;
50709;SDS011;37033;49.994;21.992;2023-08-06T14:33:45;2.00;;;1.80;;
50709;SDS011;37033;49.994;21.992;2023-08-06T14:36:15;1.00;;;0.60;;
50709;SDS011;37033;49.994;21.992;2023-08-06T14:38:47;0.40;;;0.40;;
50709;SDS011;37033;49.994;21.992;2023-08-06T14:41:17;0.60;;;0.50;;
50709;SDS011;37033;49.994;21.992;2023-08-06T14:43:48;0.50;;;0.40;;
50709;SDS011;37033;49.994;21.992;2023-08-06T14:46:19;0.60;;;0.30;;
50709;SDS011;37033;49.994;21.992;2023-08-06T14:48:50;1.10;;;1.00;;
50709;SDS011;37033;49.994;21.992;2023-08-06T14:51:21;0.90;;;0.60;;
50709;SDS011;37033;49.994;21.992;2023-08-06T14:53:52;0.20;;;0.20;;
50709;SDS011;37033;49.994;21.992;2023-08-06T14:56:23;0.40;;;0.30;;